createdAt,value
2018-08-04T00:00:08.084Z,90.30
2018-08-04T00:05:04.924Z,91.30
2018-08-04T00:07:33.079Z,91.20
2018-08-04T00:10:01.267Z,91.50
2018-08-04T00:12:29.487Z,91.40
2018-08-04T00:14:57.758Z,91.90
2018-08-04T00:17:25.939Z,91.30
2018-08-04T00:19:54.116Z,91.10
2018-08-04T00:22:22.313Z,91.50
2018-08-04T00:24:50.548Z,91.50
2018-08-04T00:27:18.714Z,91.40
2018-08-04T00:29:46.879Z,91.30
2018-08-04T00:34:43.087Z,91.70
2018-08-04T00:37:11.266Z,91.20
2018-08-04T00:39:39.459Z,91.10
2018-08-04T00:44:35.575Z,91.40
2018-08-04T00:47:03.851Z,91.50
2018-08-04T00:49:32.020Z,92.00
2018-08-04T00:52:00.204Z,92.00
2018-08-04T00:54:28.391Z,91.60
2018-08-04T00:56:56.600Z,91.20
2018-08-04T00:59:24.829Z,91.40
2018-08-04T01:01:53.004Z,91.40
2018-08-04T01:04:21.167Z,91.80
2018-08-04T01:06:49.493Z,92.00
2018-08-04T01:09:17.659Z,92.40
2018-08-04T01:11:45.866Z,92.30
2018-08-04T01:14:14.045Z,91.80
2018-08-04T01:16:42.315Z,91.80
2018-08-04T01:19:10.530Z,91.90
2018-08-04T01:21:38.722Z,92.00
2018-08-04T01:26:35.860Z,91.80
2018-08-04T01:29:04.068Z,91.80
2018-08-04T01:31:32.266Z,91.80
2018-08-04T01:34:00.528Z,92.00
2018-08-04T01:36:28.724Z,91.70
2018-08-04T01:38:56.941Z,91.70
2018-08-04T01:41:25.132Z,91.80
2018-08-04T01:46:21.339Z,91.90
2018-08-04T01:48:49.520Z,91.90
2018-08-04T01:51:17.714Z,91.80
2018-08-04T01:56:14.430Z,92.20
2018-08-04T01:58:43.184Z,91.50
2018-08-04T02:01:11.353Z,92.00
2018-08-04T02:03:39.543Z,92.00
2018-08-04T02:06:07.825Z,91.70
2018-08-04T02:08:35.995Z,91.80
2018-08-04T02:11:04.287Z,92.00
2018-08-04T02:13:32.461Z,92.00
2018-08-04T02:16:00.719Z,91.90
2018-08-04T02:18:29.508Z,91.40
2018-08-04T02:20:57.731Z,91.70
2018-08-04T02:23:25.960Z,91.90
2018-08-04T02:25:54.270Z,91.70
2018-08-04T02:28:22.438Z,91.70
2018-08-04T02:30:50.645Z,91.40
2018-08-04T02:33:18.836Z,91.50
2018-08-04T02:35:47.084Z,91.70
2018-08-04T02:38:15.235Z,91.60
2018-08-04T02:40:43.395Z,91.50
2018-08-04T02:43:11.571Z,91.50
2018-08-04T02:45:39.815Z,91.70
2018-08-04T02:48:08.001Z,91.80
2018-08-04T02:50:36.422Z,92.00
2018-08-04T02:53:04.609Z,91.70
2018-08-04T02:58:00.791Z,91.60
2018-08-04T03:00:28.982Z,92.00
2018-08-04T03:02:57.160Z,91.80
2018-08-04T03:05:25.419Z,92.40
2018-08-04T03:07:53.592Z,92.40
2018-08-04T03:10:21.862Z,92.40
2018-08-04T03:12:50.038Z,92.40
2018-08-04T03:15:18.307Z,92.40
2018-08-04T03:17:46.498Z,92.50
2018-08-04T03:20:14.675Z,92.20
2018-08-04T03:22:42.937Z,92.70
2018-08-04T03:25:11.215Z,92.60
2018-08-04T03:27:39.485Z,92.50
2018-08-04T03:30:07.786Z,92.30
2018-08-04T03:32:35.988Z,92.80
2018-08-04T03:35:04.679Z,92.90
2018-08-04T03:40:00.864Z,92.70
2018-08-04T03:42:29.090Z,93.30
2018-08-04T03:44:57.295Z,93.10
2018-08-04T03:47:25.485Z,93.40
2018-08-04T03:49:53.659Z,93.30
2018-08-04T03:52:21.836Z,93.40
2018-08-04T03:54:50.362Z,93.80
2018-08-04T03:57:18.557Z,93.30
2018-08-04T03:59:46.767Z,93.40
2018-08-04T04:02:14.911Z,93.60
2018-08-04T04:07:11.020Z,93.30
2018-08-04T04:09:39.262Z,93.50
2018-08-04T04:12:07.427Z,93.20
2018-08-04T04:14:35.624Z,93.60
2018-08-04T04:17:03.812Z,93.50
2018-08-04T04:19:31.995Z,93.40
2018-08-04T04:22:00.239Z,93.90
2018-08-04T04:24:28.431Z,93.70
2018-08-04T04:26:56.682Z,93.90
2018-08-04T04:29:24.852Z,93.40
2018-08-04T04:31:53.123Z,94.10
2018-08-04T04:34:21.299Z,93.80
2018-08-04T04:36:49.589Z,93.90
2018-08-04T04:39:17.738Z,93.80
2018-08-04T04:41:46.025Z,94.10
2018-08-04T04:44:14.879Z,94.10
2018-08-04T04:46:43.103Z,93.80
2018-08-04T04:49:12.456Z,94.10
2018-08-04T04:51:41.576Z,94.00
2018-08-04T04:54:09.805Z,94.20
2018-08-04T04:56:38.027Z,94.00
2018-08-04T04:59:06.211Z,94.10
2018-08-04T05:01:34.388Z,94.00
2018-08-04T05:04:02.561Z,93.90
2018-08-04T05:06:30.866Z,94.30
2018-08-04T05:08:59.277Z,94.30
2018-08-04T05:11:27.435Z,94.60
2018-08-04T05:13:55.738Z,94.80
2018-08-04T05:16:23.928Z,94.80
2018-08-04T05:18:52.104Z,94.60
2018-08-04T05:21:20.275Z,94.10
2018-08-04T05:23:48.460Z,94.60
2018-08-04T05:26:16.824Z,94.50
2018-08-04T05:28:45.000Z,94.80
2018-08-04T05:31:13.195Z,94.40
2018-08-04T05:33:42.103Z,94.40
2018-08-04T05:36:10.337Z,94.70
2018-08-04T05:38:39.296Z,94.20
2018-08-04T05:41:07.478Z,94.50
2018-08-04T05:43:35.702Z,94.60
2018-08-04T05:46:04.591Z,94.80
2018-08-04T05:48:32.770Z,95.00
2018-08-04T05:51:00.949Z,95.50
2018-08-04T05:53:29.132Z,96.10
2018-08-04T05:55:58.375Z,95.70
2018-08-04T05:58:26.558Z,96.40
2018-08-04T06:00:54.735Z,96.30
2018-08-04T06:03:23.093Z,95.90
2018-08-04T06:05:51.276Z,96.50
2018-08-04T06:08:19.479Z,97.50
2018-08-04T06:10:48.284Z,98.40
2018-08-04T06:13:16.480Z,98.60
2018-08-04T06:18:12.939Z,98.60
2018-08-04T06:20:41.111Z,98.30
2018-08-04T06:23:09.322Z,98.30
2018-08-04T06:25:37.652Z,97.90
2018-08-04T06:28:05.837Z,97.80
2018-08-04T06:30:34.055Z,97.50
2018-08-04T06:33:02.215Z,97.50
2018-08-04T06:35:30.491Z,97.50
2018-08-04T06:37:58.682Z,97.80
2018-08-04T06:40:26.873Z,97.10
2018-08-04T06:42:55.048Z,96.90
2018-08-04T06:45:23.307Z,96.70
2018-08-04T06:47:51.479Z,96.60
2018-08-04T06:50:19.704Z,96.90
2018-08-04T06:52:47.938Z,96.50
2018-08-04T06:55:16.228Z,96.30
2018-08-04T06:57:44.461Z,96.00
2018-08-04T07:00:12.635Z,96.50
2018-08-04T07:02:40.808Z,95.60
2018-08-04T07:05:09.110Z,95.60
2018-08-04T07:07:37.344Z,96.10
2018-08-04T07:10:05.567Z,95.70
2018-08-04T07:12:34.227Z,95.50
2018-08-04T07:15:03.475Z,95.00
2018-08-04T07:17:31.672Z,94.80
2018-08-04T07:19:59.877Z,94.70
2018-08-04T07:22:28.084Z,94.50
2018-08-04T07:24:56.358Z,94.40
2018-08-04T07:27:24.553Z,94.30
2018-08-04T07:29:52.725Z,94.10
2018-08-04T07:34:51.343Z,94.00
2018-08-04T07:37:20.527Z,94.00
2018-08-04T07:42:16.754Z,94.00
2018-08-04T07:44:44.966Z,94.00
2018-08-04T07:47:13.152Z,94.60
2018-08-04T07:49:41.336Z,94.00
2018-08-04T07:52:09.527Z,94.00
2018-08-04T07:54:38.286Z,93.90
2018-08-04T07:57:06.582Z,93.80
2018-08-04T07:59:34.809Z,93.80
2018-08-04T08:02:02.935Z,93.70
2018-08-04T08:04:31.115Z,93.60
2018-08-04T08:06:59.383Z,93.50
2018-08-04T08:09:27.555Z,93.60
2018-08-04T08:11:55.754Z,93.50
2018-08-04T08:14:23.979Z,93.40
2018-08-04T08:16:52.390Z,93.30
2018-08-04T08:19:20.591Z,93.20
2018-08-04T08:21:48.815Z,93.10
2018-08-04T08:24:16.995Z,93.20
2018-08-04T08:26:45.275Z,93.30
2018-08-04T08:29:13.493Z,92.90
2018-08-04T08:31:41.788Z,92.80
2018-08-04T08:34:09.948Z,92.70
2018-08-04T08:39:07.500Z,92.60
2018-08-04T08:41:35.668Z,92.50
2018-08-04T08:44:03.920Z,92.50
2018-08-04T08:46:32.184Z,92.50
2018-08-04T08:49:00.355Z,92.50
2018-08-04T08:51:28.539Z,92.50
2018-08-04T08:53:56.759Z,92.40
2018-08-04T08:56:25.040Z,92.90
2018-08-04T09:01:21.274Z,92.70
2018-08-04T09:03:49.468Z,92.70
2018-08-04T09:06:17.716Z,92.50
2018-08-04T09:08:45.903Z,92.40
2018-08-04T09:13:42.040Z,92.40
2018-08-04T09:16:10.259Z,92.60
2018-08-04T09:18:38.483Z,92.30
2018-08-04T09:21:06.691Z,92.30
2018-08-04T09:23:34.862Z,92.10
2018-08-04T09:26:03.100Z,92.00
2018-08-04T09:28:31.328Z,91.80
2018-08-04T09:30:59.599Z,91.80
2018-08-04T09:33:27.731Z,91.70
2018-08-04T09:36:59.027Z,91.30
2018-08-04T09:39:27.264Z,91.00
2018-08-04T09:41:55.410Z,90.90
2018-08-04T09:44:23.616Z,90.60
2018-08-04T09:49:19.821Z,89.30
2018-08-04T09:51:47.992Z,89.50
2018-08-04T09:54:18.409Z,88.80
2018-08-04T09:56:46.732Z,86.60
2018-08-04T10:01:42.945Z,85.90
2018-08-04T10:04:11.123Z,85.20
2018-08-04T10:06:39.357Z,85.40
2018-08-04T10:09:12.256Z,84.80
2018-08-04T10:11:40.472Z,84.80
2018-08-04T10:14:08.664Z,84.50
2018-08-04T10:16:36.875Z,85.50
2018-08-04T10:19:05.090Z,85.00
2018-08-04T10:21:33.635Z,84.80
2018-08-04T10:24:01.923Z,85.30
2018-08-04T10:26:30.221Z,84.90
2018-08-04T10:28:58.392Z,85.10
2018-08-04T10:31:26.575Z,85.80
2018-08-04T10:33:54.783Z,86.60
2018-08-04T10:36:23.108Z,85.50
2018-08-04T10:38:51.306Z,86.00
2018-08-04T10:41:19.489Z,85.80
2018-08-04T10:46:15.712Z,86.10
2018-08-04T10:48:43.939Z,85.80
2018-08-04T10:51:12.094Z,85.80
2018-08-04T10:53:40.520Z,85.20
2018-08-04T10:56:08.799Z,86.30
2018-08-04T10:58:36.992Z,86.50
2018-08-04T11:01:05.221Z,87.00
2018-08-04T11:03:33.411Z,82.90
2018-08-04T11:06:02.076Z,81.80
2018-08-04T11:08:30.311Z,80.00
2018-08-04T11:10:58.448Z,77.20
2018-08-04T11:13:26.891Z,77.00
2018-08-04T11:15:55.207Z,76.50
2018-08-04T11:18:23.403Z,77.20
2018-08-04T11:20:51.852Z,76.60
2018-08-04T11:23:20.048Z,75.50
2018-08-04T11:25:48.307Z,74.20
2018-08-04T11:28:16.848Z,73.10
2018-08-04T11:33:13.003Z,73.10
2018-08-04T11:35:41.337Z,72.90
2018-08-04T11:38:09.596Z,72.30
2018-08-04T11:40:37.818Z,72.50
2018-08-04T11:43:06.006Z,72.50
2018-08-04T11:45:34.593Z,71.40
2018-08-04T11:48:02.745Z,71.20
2018-08-04T11:50:30.984Z,71.20
2018-08-04T11:52:59.424Z,71.10
2018-08-04T11:55:27.656Z,71.50
2018-08-04T12:00:24.883Z,72.10
2018-08-04T12:02:53.819Z,72.50
2018-08-04T12:07:49.981Z,71.90
2018-08-04T12:10:18.207Z,71.80
2018-08-04T12:12:46.408Z,72.00
2018-08-04T12:17:42.515Z,71.20
2018-08-04T12:20:10.735Z,71.20
2018-08-04T12:22:38.910Z,71.40
2018-08-04T12:25:07.071Z,70.70
2018-08-04T12:30:03.312Z,70.80
2018-08-04T12:32:31.835Z,70.10
2018-08-04T12:35:00.312Z,69.60
2018-08-04T12:37:28.816Z,70.00
2018-08-04T12:39:57.646Z,70.00
2018-08-04T12:42:25.833Z,70.60
2018-08-04T12:44:54.135Z,71.70
2018-08-04T12:47:22.307Z,72.10
2018-08-04T12:49:50.520Z,72.40
2018-08-04T12:52:18.764Z,72.40
2018-08-04T12:54:47.193Z,71.60
2018-08-04T12:59:44.096Z,72.40
2018-08-04T13:04:40.191Z,72.10
2018-08-04T13:09:37.101Z,72.50
2018-08-04T13:12:05.830Z,72.20
2018-08-04T13:14:34.400Z,72.10
2018-08-04T13:17:02.956Z,72.60
2018-08-04T13:19:31.521Z,72.70
2018-08-04T13:22:00.244Z,73.80
2018-08-04T13:24:28.459Z,74.10
2018-08-04T13:26:56.672Z,74.50
2018-08-04T13:29:24.867Z,75.60
2018-08-04T13:31:53.320Z,74.30
2018-08-04T13:34:21.562Z,74.60
2018-08-04T13:36:49.965Z,75.20
2018-08-04T13:39:18.216Z,75.70
2018-08-04T13:41:46.451Z,75.50
2018-08-04T13:44:14.981Z,75.00
2018-08-04T13:46:43.270Z,75.40
2018-08-04T13:49:11.453Z,75.50
2018-08-04T13:51:39.683Z,75.30
2018-08-04T13:56:36.319Z,75.20
2018-08-04T13:59:04.998Z,74.30
2018-08-04T14:01:33.238Z,73.60
2018-08-04T14:04:01.452Z,73.60
2018-08-04T14:06:29.970Z,73.70
2018-08-04T14:08:58.539Z,74.00
2018-08-04T14:13:54.896Z,74.60
2018-08-04T14:16:23.919Z,74.70
2018-08-04T14:18:52.136Z,74.70
2018-08-04T14:21:20.401Z,74.70
2018-08-04T14:23:48.664Z,74.50
2018-08-04T14:26:16.861Z,74.10
2018-08-04T14:28:45.338Z,74.50
2018-08-04T14:31:13.773Z,74.70
2018-08-04T14:33:42.060Z,74.80
2018-08-04T14:36:10.268Z,74.40
2018-08-04T14:38:38.702Z,74.20
2018-08-04T14:41:06.897Z,74.10
2018-08-04T14:43:35.075Z,74.10
2018-08-04T14:46:03.339Z,74.20
2018-08-04T14:48:31.539Z,74.30
2018-08-04T14:50:59.735Z,74.40
2018-08-04T15:00:51.852Z,75.30
2018-08-04T15:03:20.048Z,75.80
2018-08-04T15:05:48.245Z,76.30
2018-08-04T15:08:16.477Z,76.60
2018-08-04T15:10:44.660Z,76.40
2018-08-04T15:13:12.855Z,76.50
2018-08-04T15:15:41.036Z,76.80
2018-08-04T15:18:09.235Z,76.90
2018-08-04T15:25:33.662Z,76.90
2018-08-04T15:28:01.840Z,77.20
2018-08-04T15:30:30.026Z,77.20
2018-08-04T15:32:58.256Z,77.50
2018-08-04T15:35:26.439Z,77.50
2018-08-04T15:37:54.628Z,77.80
2018-08-04T15:40:22.855Z,77.80
2018-08-04T15:45:20.463Z,77.90
2018-08-04T15:47:48.637Z,78.10
2018-08-04T15:50:16.839Z,78.30
2018-08-04T15:52:45.061Z,78.30
2018-08-04T15:55:13.254Z,78.40
2018-08-04T15:57:41.430Z,78.70
2018-08-04T16:02:37.953Z,78.80
2018-08-04T16:05:06.156Z,78.70
2018-08-04T16:07:34.479Z,78.80
2018-08-04T16:10:02.661Z,78.30
2018-08-04T16:12:31.101Z,77.90
2018-08-04T16:14:59.324Z,77.90
2018-08-04T16:17:27.548Z,77.20
2018-08-04T16:19:55.736Z,77.20
2018-08-04T16:22:24.064Z,77.40
2018-08-04T16:24:52.275Z,77.70
2018-08-04T16:27:20.494Z,77.90
2018-08-04T16:29:49.538Z,77.80
2018-08-04T16:34:45.716Z,77.80
2018-08-04T16:37:13.882Z,77.90
2018-08-04T16:39:42.159Z,77.60
2018-08-04T16:42:10.336Z,77.60
2018-08-04T16:44:39.139Z,77.50
2018-08-04T16:47:07.404Z,77.00
2018-08-04T16:49:35.589Z,77.10
2018-08-04T16:52:03.772Z,77.10
2018-08-04T16:54:31.982Z,77.10
2018-08-04T16:59:28.197Z,76.20
2018-08-04T17:01:56.360Z,76.60
2018-08-04T17:04:24.547Z,76.80
2018-08-04T17:06:52.703Z,77.10
2018-08-04T17:09:20.886Z,76.10
2018-08-04T17:11:49.052Z,76.40
2018-08-04T17:14:17.236Z,76.10
2018-08-04T17:16:45.452Z,75.90
2018-08-04T17:21:41.591Z,76.40
2018-08-04T17:24:09.788Z,76.40
2018-08-04T17:26:37.976Z,76.20
2018-08-04T17:29:06.168Z,76.30
2018-08-04T17:31:34.339Z,76.30
2018-08-04T17:34:02.514Z,76.60
2018-08-04T17:36:30.728Z,76.90
2018-08-04T17:41:26.888Z,77.40
2018-08-04T17:43:55.067Z,77.50
2018-08-04T17:46:23.223Z,77.90
2018-08-04T17:48:51.431Z,78.60
2018-08-04T17:51:19.616Z,78.90
2018-08-04T17:53:47.783Z,79.40
2018-08-04T17:56:15.987Z,79.50
2018-08-04T17:58:44.160Z,79.60
2018-08-04T18:01:12.364Z,80.10
2018-08-04T18:03:40.548Z,80.00
2018-08-04T18:06:08.736Z,80.30
2018-08-04T18:08:36.895Z,80.30
2018-08-04T18:11:05.087Z,80.50
2018-08-04T18:13:33.287Z,80.80
2018-08-04T18:16:01.595Z,80.90
2018-08-04T18:18:29.807Z,80.80
2018-08-04T18:20:58.004Z,81.40
2018-08-04T18:23:26.199Z,81.30
2018-08-04T18:25:54.378Z,82.20
2018-08-04T18:28:22.566Z,81.40
2018-08-04T18:33:18.684Z,82.10
2018-08-04T18:35:46.876Z,82.30
2018-08-04T18:38:15.079Z,82.40
2018-08-04T18:40:43.269Z,82.90
2018-08-04T18:43:11.480Z,83.30
2018-08-04T18:45:39.684Z,83.10
2018-08-04T18:50:35.784Z,83.20
2018-08-04T18:53:04.045Z,83.00
2018-08-04T18:55:32.216Z,83.50
2018-08-04T18:58:00.384Z,83.60
2018-08-04T19:00:28.596Z,84.10
2018-08-04T19:02:56.795Z,84.80
2018-08-04T19:07:52.940Z,84.50
2018-08-04T19:12:49.053Z,84.60
2018-08-04T19:15:17.229Z,85.20
2018-08-04T19:17:45.419Z,84.80
2018-08-04T19:20:13.632Z,85.10
2018-08-04T19:22:42.670Z,85.80
2018-08-04T19:25:10.863Z,86.10
2018-08-04T19:27:39.043Z,86.10
2018-08-04T19:32:35.471Z,86.90
2018-08-04T19:35:04.091Z,86.70
2018-08-04T19:37:32.265Z,87.90
2018-08-04T19:40:00.457Z,87.80
2018-08-04T19:42:28.695Z,88.30
2018-08-04T19:47:24.877Z,89.30
2018-08-04T19:49:53.061Z,89.60
2018-08-04T19:52:21.261Z,90.20
2018-08-04T19:54:49.513Z,88.90
2018-08-04T19:57:17.686Z,89.10
2018-08-04T19:59:45.859Z,89.50
2018-08-04T20:02:14.072Z,89.50
2018-08-04T20:07:16.815Z,90.20
2018-08-04T20:09:44.988Z,90.00
2018-08-04T20:12:13.159Z,90.60
2018-08-04T20:14:41.382Z,90.80
2018-08-04T20:17:09.570Z,90.60
2018-08-04T20:22:11.380Z,90.80
2018-08-04T20:24:39.580Z,91.40
2018-08-04T20:27:07.843Z,91.30
2018-08-04T20:29:36.070Z,91.60
2018-08-04T20:32:04.382Z,92.00
2018-08-04T20:34:32.836Z,91.60
2018-08-04T20:37:01.036Z,91.60
2018-08-04T20:39:29.223Z,92.00
2018-08-04T20:41:57.492Z,92.30
2018-08-04T20:44:25.695Z,92.60
2018-08-04T20:46:53.933Z,92.40
2018-08-04T20:49:22.107Z,92.60
2018-08-04T20:51:50.304Z,92.70
2018-08-04T20:54:18.481Z,93.10
2018-08-04T20:56:46.757Z,92.90
2018-08-04T20:59:14.967Z,93.10
2018-08-04T21:04:19.312Z,93.20
2018-08-04T21:09:16.036Z,93.30
2018-08-04T21:11:51.775Z,93.70
2018-08-04T21:14:21.462Z,93.70
2018-08-04T21:16:50.642Z,94.50
2018-08-04T21:19:19.872Z,94.00
2018-08-04T21:21:48.076Z,94.20
2018-08-04T21:24:16.979Z,94.00
2018-08-04T21:31:41.152Z,93.90
2018-08-04T21:34:10.089Z,94.10
2018-08-04T21:39:08.723Z,95.30
2018-08-04T21:41:36.917Z,94.60
2018-08-04T21:44:05.146Z,95.20
2018-08-04T21:46:33.340Z,95.10
2018-08-04T21:49:01.539Z,95.30
2018-08-04T21:51:29.720Z,95.30
2018-08-04T21:53:58.252Z,95.50
2018-08-04T21:56:26.485Z,95.40
2018-08-04T21:58:54.647Z,95.90
2018-08-04T22:01:22.886Z,96.20
2018-08-04T22:03:51.084Z,95.80
2018-08-04T22:06:19.400Z,95.90
2018-08-04T22:11:21.164Z,95.80
2018-08-04T22:16:17.326Z,96.20
2018-08-04T22:21:13.463Z,96.00
2018-08-04T22:23:41.669Z,96.20
2018-08-04T22:26:09.884Z,96.00
2018-08-04T22:28:38.070Z,96.00
2018-08-04T22:31:06.331Z,95.70
2018-08-04T22:33:34.519Z,95.70
2018-08-04T22:36:02.703Z,96.00
2018-08-04T22:40:58.923Z,96.00
2018-08-04T22:43:27.101Z,96.10
2018-08-04T22:45:59.204Z,95.90
2018-08-04T22:48:27.404Z,95.90
2018-08-04T22:50:55.716Z,96.50
2018-08-04T22:53:23.896Z,96.00
2018-08-04T22:55:52.108Z,96.10
2018-08-04T22:58:20.348Z,96.30
2018-08-04T23:00:48.546Z,96.10
2018-08-04T23:03:16.752Z,96.30
2018-08-04T23:05:44.952Z,96.10
2018-08-04T23:08:13.600Z,96.20
2018-08-04T23:10:42.143Z,96.20
2018-08-04T23:13:10.957Z,97.00
2018-08-04T23:15:39.195Z,96.70
2018-08-04T23:18:07.799Z,96.80
2018-08-04T23:23:04.052Z,97.30
2018-08-04T23:25:32.299Z,97.30
2018-08-04T23:28:00.492Z,97.50
2018-08-04T23:35:25.843Z,97.70
2018-08-04T23:37:54.018Z,97.60
2018-08-04T23:40:22.498Z,97.60
2018-08-04T23:42:50.746Z,97.90
2018-08-04T23:45:18.999Z,98.10
2018-08-04T23:47:47.191Z,98.00
2018-08-04T23:50:15.394Z,97.80
2018-08-04T23:52:43.592Z,97.90
2018-08-04T23:55:11.859Z,98.50
2018-08-04T23:57:40.813Z,98.20
